createdAt,value
2022-08-22T00:00:27.829Z,98353.30
2022-08-22T00:02:41.708Z,98320.95
2022-08-22T00:02:46.733Z,98316.38
2022-08-22T00:02:48.934Z,98303.44
2022-08-22T00:02:55.559Z,98343.37
2022-08-22T00:02:58.874Z,98344.29
2022-08-22T00:02:59.904Z,98306.73
2022-08-22T00:03:09.033Z,98348.75
2022-08-22T00:03:26.318Z,98356.31
2022-08-22T00:06:08.341Z,98358.44
2022-08-22T00:08:43.770Z,98360.14
2022-08-22T00:11:40.103Z,98357.98
2022-08-22T00:14:23.189Z,98355.06
2022-08-22T00:17:23.236Z,98353.83
2022-08-22T00:20:07.643Z,98358.14
2022-08-22T00:22:47.785Z,98360.19
2022-08-22T00:25:27.883Z,98358.92
2022-08-22T00:28:13.967Z,98357.11
2022-08-22T00:31:10.127Z,98358.36
2022-08-22T00:34:01.054Z,98358.27
2022-08-22T00:36:43.683Z,98353.35
2022-08-22T00:39:25.148Z,98356.41
2022-08-22T00:42:08.237Z,98356.38
2022-08-22T00:44:44.195Z,98361.81
2022-08-22T00:47:38.014Z,98368.14
2022-08-22T00:50:26.145Z,98368.87
2022-08-22T00:53:15.469Z,98368.10
2022-08-22T00:56:24.755Z,98368.88
2022-08-22T00:59:23.210Z,98369.76
2022-08-22T01:02:28.277Z,98371.17
2022-08-22T01:05:36.423Z,98367.38
2022-08-22T01:08:22.863Z,98362.33
2022-08-22T01:11:09.132Z,98365.86
2022-08-22T01:14:04.912Z,98362.77
2022-08-22T01:17:07.078Z,98362.02
2022-08-22T01:19:47.150Z,98358.29
2022-08-22T01:22:52.370Z,98359.57
2022-08-22T01:25:48.321Z,98360.20
2022-08-22T01:28:46.478Z,98363.35
2022-08-22T01:31:50.177Z,98361.16
2022-08-22T01:34:57.707Z,98361.15
2022-08-22T01:37:47.985Z,98361.86
2022-08-22T01:40:17.586Z,98365.41
2022-08-22T01:42:59.481Z,98362.36
2022-08-22T01:45:33.164Z,98359.33
2022-08-22T01:48:13.422Z,98354.24
2022-08-22T01:50:54.809Z,98350.87
2022-08-22T01:53:46.500Z,98347.93
2022-08-22T01:56:21.568Z,98348.71
2022-08-22T01:59:01.762Z,98349.03
2022-08-22T02:01:56.060Z,98348.44
2022-08-22T02:04:36.235Z,98346.76
2022-08-22T02:07:08.000Z,98350.77
2022-08-22T02:09:38.553Z,98349.76
2022-08-22T02:12:44.076Z,98347.08
2022-08-22T02:15:14.783Z,98349.59
2022-08-22T02:17:53.067Z,98354.13
2022-08-22T02:20:36.650Z,98352.39
2022-08-22T02:23:28.069Z,98350.93
2022-08-22T02:26:01.569Z,98353.41
2022-08-22T02:28:57.433Z,98353.39
2022-08-22T02:31:41.069Z,98359.36
2022-08-22T02:34:19.139Z,98359.39
2022-08-22T02:36:54.036Z,98368.69
2022-08-22T02:40:05.958Z,98371.30
2022-08-22T02:42:51.429Z,98373.08
2022-08-22T02:45:24.216Z,98374.80
2022-08-22T02:48:17.480Z,98377.77
2022-08-22T02:51:01.477Z,98377.34
2022-08-22T02:53:36.061Z,98376.79
2022-08-22T02:56:18.694Z,98376.54
2022-08-22T02:59:00.099Z,98379.48
2022-08-22T03:01:27.917Z,98382.70
2022-08-22T03:04:21.410Z,98386.22
2022-08-22T03:06:58.423Z,98382.27
2022-08-22T03:09:31.902Z,98384.12
2022-08-22T03:12:12.845Z,98381.33
2022-08-22T03:15:10.032Z,98385.95
2022-08-22T03:18:06.344Z,98382.57
2022-08-22T03:21:00.091Z,98381.79
2022-08-22T03:23:46.693Z,98378.17
2022-08-22T03:26:28.159Z,98376.92
2022-08-22T03:29:10.589Z,98378.63
2022-08-22T03:31:58.654Z,98380.70
2022-08-22T03:34:27.276Z,98382.90
2022-08-22T03:37:11.830Z,98385.04
2022-08-22T03:40:20.206Z,98386.38
2022-08-22T03:43:03.356Z,98387.42
2022-08-22T03:46:02.637Z,98383.50
2022-08-22T03:48:45.607Z,98385.01
2022-08-22T03:51:29.223Z,98387.51
2022-08-22T03:54:08.874Z,98387.59
2022-08-22T03:57:07.846Z,98388.33
2022-08-22T04:00:07.095Z,98392.46
2022-08-22T04:03:12.307Z,98389.79
2022-08-22T04:06:03.081Z,98394.15
2022-08-22T04:08:57.729Z,98391.27
2022-08-22T04:11:46.715Z,98389.39
2022-08-22T04:14:52.364Z,98387.77
2022-08-22T04:17:41.322Z,98386.80
2022-08-22T04:20:47.068Z,98379.26
2022-08-22T04:23:27.653Z,98374.42
2022-08-22T04:26:11.893Z,98378.38
2022-08-22T04:28:59.181Z,98377.83
2022-08-22T04:31:32.633Z,98386.19
2022-08-22T04:34:16.970Z,98396.52
2022-08-22T04:36:54.528Z,98403.65
2022-08-22T04:39:34.906Z,98400.97
2022-08-22T04:42:31.199Z,98395.17
2022-08-22T04:45:15.699Z,98401.52
2022-08-22T04:47:54.239Z,98402.02
2022-08-22T04:50:38.019Z,98403.69
2022-08-22T04:53:36.042Z,98407.82
2022-08-22T04:56:22.768Z,98408.70
2022-08-22T04:58:59.155Z,98406.22
2022-08-22T05:01:38.583Z,98412.66
2022-08-22T05:04:12.854Z,98416.59
2022-08-22T05:06:47.214Z,98419.08
2022-08-22T05:09:22.708Z,98415.50
2022-08-22T05:11:57.748Z,98416.77
2022-08-22T05:14:33.461Z,98413.57
2022-08-22T05:17:04.424Z,98416.46
2022-08-22T05:19:36.168Z,98413.83
2022-08-22T05:22:12.872Z,98417.77
2022-08-22T05:24:46.326Z,98421.70
2022-08-22T05:27:25.972Z,98426.05
2022-08-22T05:30:09.745Z,98423.70
2022-08-22T05:32:41.452Z,98423.92
2022-08-22T05:35:10.142Z,98427.76
2022-08-22T05:37:48.616Z,98427.20
2022-08-22T05:40:26.270Z,98432.21
2022-08-22T05:42:56.942Z,98433.04
2022-08-22T05:45:28.588Z,98433.17
2022-08-22T05:48:08.027Z,98434.44
2022-08-22T05:50:46.389Z,98439.30
2022-08-22T05:53:29.803Z,98442.35
2022-08-22T05:56:13.549Z,98447.90
2022-08-22T05:58:49.492Z,98453.85
2022-08-22T06:01:24.222Z,98454.05
2022-08-22T06:04:06.908Z,98458.12
2022-08-22T06:06:50.188Z,98462.52
2022-08-22T06:09:35.384Z,98455.39
2022-08-22T06:12:18.123Z,98460.89
2022-08-22T06:15:12.147Z,98454.78
2022-08-22T06:17:50.835Z,98455.64
2022-08-22T06:20:36.371Z,98449.33
2022-08-22T06:23:07.907Z,98449.39
2022-08-22T06:25:39.852Z,98447.64
2022-08-22T06:28:11.743Z,98446.85
2022-08-22T06:30:40.436Z,98448.47
2022-08-22T06:33:12.869Z,98449.36
2022-08-22T06:36:08.197Z,98451.59
2022-08-22T06:38:54.399Z,98457.60
2022-08-22T06:41:28.085Z,98464.20
2022-08-22T06:43:58.750Z,98466.48
2022-08-22T06:46:29.532Z,98463.04
2022-08-22T06:49:00.964Z,98468.67
2022-08-22T06:51:30.303Z,98469.23
2022-08-22T06:54:03.737Z,98472.45
2022-08-22T06:56:41.233Z,98475.23
2022-08-22T06:59:14.082Z,98475.05
2022-08-22T07:02:03.721Z,98476.45
2022-08-22T07:04:32.182Z,98477.02
2022-08-22T07:07:02.390Z,98479.34
2022-08-22T07:09:40.476Z,98482.78
2022-08-22T07:12:21.256Z,98484.25
2022-08-22T07:14:52.213Z,98484.73
2022-08-22T07:17:25.172Z,98487.98
2022-08-22T07:20:28.131Z,98488.86
2022-08-22T07:23:09.891Z,98489.29
2022-08-22T07:25:52.543Z,98490.45
2022-08-22T07:28:59.270Z,98491.18
2022-08-22T07:31:53.377Z,98493.58
2022-08-22T07:34:44.821Z,98497.45
2022-08-22T07:37:31.683Z,98496.48
2022-08-22T07:40:21.033Z,98496.02
2022-08-22T07:42:56.777Z,98496.91
2022-08-22T07:45:46.277Z,98491.35
2022-08-22T07:48:34.004Z,98494.83
2022-08-22T07:51:13.923Z,98497.21
2022-08-22T07:53:49.258Z,98496.10
2022-08-22T07:56:29.129Z,98496.27
2022-08-22T07:59:06.832Z,98495.70
2022-08-22T08:01:40.878Z,98491.70
2022-08-22T08:04:13.236Z,98488.65
2022-08-22T08:06:41.472Z,98490.58
2022-08-22T08:09:15.811Z,98489.49
2022-08-22T08:11:45.035Z,98489.31
2022-08-22T08:14:16.628Z,98491.96
2022-08-22T08:17:02.756Z,98492.08
2022-08-22T08:19:34.505Z,98491.86
2022-08-22T08:22:02.772Z,98492.00
2022-08-22T08:24:41.693Z,98491.16
2022-08-22T08:27:35.919Z,98491.34
2022-08-22T08:30:22.290Z,98487.38
2022-08-22T08:32:57.452Z,98481.36
2022-08-22T08:36:03.065Z,98479.58
2022-08-22T08:38:45.503Z,98476.05
2022-08-22T08:41:56.859Z,98477.88
2022-08-22T08:44:40.969Z,98481.00
2022-08-22T08:47:30.178Z,98482.17
2022-08-22T08:50:25.919Z,98482.66
2022-08-22T08:53:06.587Z,98479.85
2022-08-22T08:55:54.942Z,98482.58
2022-08-22T08:58:38.356Z,98478.67
2022-08-22T09:01:19.563Z,98478.92
2022-08-22T09:04:17.388Z,98473.96
2022-08-22T09:06:56.810Z,98471.35
2022-08-22T09:10:11.864Z,98468.73
2022-08-22T09:13:24.491Z,98467.41
2022-08-22T09:16:17.112Z,98466.69
2022-08-22T09:19:14.665Z,98471.23
2022-08-22T09:22:05.557Z,98470.88
2022-08-22T09:25:06.091Z,98472.30
2022-08-22T09:27:47.646Z,98473.59
2022-08-22T09:30:28.596Z,98478.48
2022-08-22T09:33:13.028Z,98472.45
2022-08-22T09:36:05.196Z,98475.49
2022-08-22T09:38:50.650Z,98470.00
2022-08-22T09:41:35.864Z,98469.58
2022-08-22T09:44:32.217Z,98467.04
2022-08-22T09:47:39.180Z,98465.39
2022-08-22T09:50:24.842Z,98460.44
2022-08-22T09:53:24.964Z,98458.82
2022-08-22T09:56:15.638Z,98462.84
2022-08-22T09:58:44.840Z,98460.08
2022-08-22T10:01:26.452Z,98463.86
2022-08-22T10:04:35.778Z,98461.39
2022-08-22T10:07:33.869Z,98466.77
2022-08-22T10:10:25.000Z,98464.19
2022-08-22T10:13:10.572Z,98461.97
2022-08-22T10:15:45.980Z,98462.39
2022-08-22T10:18:37.502Z,98463.96
2022-08-22T10:21:23.518Z,98468.53
2022-08-22T10:24:02.334Z,98461.95
2022-08-22T10:26:51.614Z,98458.36
2022-08-22T10:29:50.954Z,98462.23
2022-08-22T10:32:54.450Z,98463.02
2022-08-22T10:35:40.336Z,98461.98
2022-08-22T10:38:26.285Z,98461.17
2022-08-22T10:41:18.588Z,98459.50
2022-08-22T10:44:03.938Z,98454.88
2022-08-22T10:46:42.409Z,98458.10
2022-08-22T10:49:38.676Z,98457.95
2022-08-22T10:52:16.031Z,98456.94
2022-08-22T10:55:00.922Z,98454.40
2022-08-22T10:57:38.198Z,98449.75
2022-08-22T11:00:12.125Z,98445.94
2022-08-22T11:02:53.430Z,98437.20
2022-08-22T11:05:40.444Z,98434.77
2022-08-22T11:08:55.793Z,98430.71
2022-08-22T11:11:48.436Z,98435.49
2022-08-22T11:14:28.672Z,98435.16
2022-08-22T11:16:59.696Z,98433.52
2022-08-22T11:19:52.902Z,98436.54
2022-08-22T11:22:45.658Z,98434.00
2022-08-22T11:25:39.119Z,98431.15
2022-08-22T11:28:39.024Z,98428.92
2022-08-22T11:31:31.609Z,98427.47
2022-08-22T11:34:22.488Z,98423.98
2022-08-22T11:37:01.840Z,98424.83
2022-08-22T11:39:43.010Z,98423.63
2022-08-22T11:42:13.879Z,98423.16
2022-08-22T11:44:55.859Z,98422.16
2022-08-22T11:47:32.630Z,98425.67
2022-08-22T11:50:14.001Z,98426.35
2022-08-22T11:53:10.924Z,98428.52
2022-08-22T11:56:08.813Z,98426.29
2022-08-22T11:58:54.597Z,98423.73
2022-08-22T12:01:36.508Z,98422.98
2022-08-22T12:04:32.644Z,98420.48
2022-08-22T12:07:18.521Z,98417.03
2022-08-22T12:09:56.293Z,98412.52
2022-08-22T12:12:42.174Z,98412.20
2022-08-22T12:15:22.460Z,98410.68
2022-08-22T12:18:20.126Z,98408.51
2022-08-22T12:21:02.119Z,98405.08
2022-08-22T12:24:11.038Z,98401.23
2022-08-22T12:27:07.821Z,98397.70
2022-08-22T12:30:03.712Z,98393.04
2022-08-22T12:33:07.002Z,98389.61
2022-08-22T12:35:55.747Z,98384.02
2022-08-22T12:38:31.281Z,98385.65
2022-08-22T12:41:37.383Z,98383.42
2022-08-22T12:44:33.382Z,98380.29
2022-08-22T12:47:01.804Z,98376.44
2022-08-22T12:50:10.171Z,98372.48
2022-08-22T12:52:56.508Z,98368.25
2022-08-22T12:55:56.802Z,98365.96
2022-08-22T12:58:51.475Z,98367.08
2022-08-22T13:01:23.306Z,98365.40
2022-08-22T13:04:12.789Z,98374.17
2022-08-22T13:07:02.197Z,98370.17
2022-08-22T13:09:38.402Z,98371.86
2022-08-22T13:12:51.983Z,98370.86
2022-08-22T13:15:29.524Z,98366.23
2022-08-22T13:18:25.139Z,98367.09
2022-08-22T13:20:53.797Z,98369.23
2022-08-22T13:23:39.888Z,98371.36
2022-08-22T13:26:35.328Z,98373.30
2022-08-22T13:29:26.205Z,98371.14
2022-08-22T13:32:01.830Z,98364.33
2022-08-22T13:34:43.683Z,98364.18
2022-08-22T13:37:17.553Z,98355.29
2022-08-22T13:39:52.600Z,98354.54
2022-08-22T13:42:30.479Z,98357.52
2022-08-22T13:45:05.045Z,98346.46
2022-08-22T13:47:39.563Z,98344.67
2022-08-22T13:50:19.893Z,98346.23
2022-08-22T13:52:55.040Z,98345.42
2022-08-22T13:55:27.626Z,98350.53
2022-08-22T13:58:10.959Z,98351.04
2022-08-22T14:01:01.666Z,98347.92
2022-08-22T14:03:41.241Z,98348.05
2022-08-22T14:06:41.216Z,98351.39
2022-08-22T14:09:37.257Z,98350.44
2022-08-22T14:12:12.029Z,98348.95
2022-08-22T14:14:46.469Z,98345.89
2022-08-22T14:17:23.786Z,98341.24
2022-08-22T14:20:01.525Z,98339.41
2022-08-22T14:22:35.788Z,98332.48
2022-08-22T14:25:17.098Z,98329.47
2022-08-22T14:27:55.239Z,98321.80
2022-08-22T14:30:32.572Z,98322.54
2022-08-22T14:33:24.493Z,98316.02
2022-08-22T14:35:58.742Z,98325.98
2022-08-22T14:38:40.581Z,98328.70
2022-08-22T14:41:17.738Z,98330.13
2022-08-22T14:44:04.414Z,98333.15
2022-08-22T14:46:44.843Z,98340.13
2022-08-22T14:49:24.906Z,98342.24
2022-08-22T14:52:02.900Z,98339.69
2022-08-22T14:54:33.354Z,98345.48
2022-08-22T14:57:10.108Z,98353.45
2022-08-22T14:59:53.311Z,98357.65
2022-08-22T15:02:22.554Z,98354.54
2022-08-22T15:04:56.206Z,98356.38
2022-08-22T15:07:31.496Z,98357.73
2022-08-22T15:10:20.850Z,98359.36
2022-08-22T15:12:54.731Z,98361.09
2022-08-22T15:15:53.645Z,98368.48
2022-08-22T15:18:27.578Z,98367.88
2022-08-22T15:21:28.447Z,98369.27
2022-08-22T15:24:07.130Z,98370.02
2022-08-22T15:26:50.141Z,98366.90
2022-08-22T15:29:24.987Z,98368.05
2022-08-22T15:31:58.146Z,98368.38
2022-08-22T15:34:40.203Z,98370.30
2022-08-22T15:37:18.928Z,98366.66
2022-08-22T15:40:15.515Z,98368.02
2022-08-22T15:42:51.151Z,98372.70
2022-08-22T15:45:34.726Z,98370.09
2022-08-22T15:48:24.528Z,98368.54
2022-08-22T15:51:11.616Z,98366.79
2022-08-22T15:53:44.015Z,98369.90
2022-08-22T15:56:13.081Z,98363.58
2022-08-22T15:58:49.534Z,98358.19
2022-08-22T16:01:25.661Z,98366.05
2022-08-22T16:04:09.030Z,98368.42
2022-08-22T16:06:52.978Z,98369.14
2022-08-22T16:09:43.489Z,98371.20
2022-08-22T16:12:41.213Z,98363.88
2022-08-22T16:15:46.829Z,98359.39
2022-08-22T16:18:39.405Z,98353.45
2022-08-22T16:21:12.838Z,98357.88
2022-08-22T16:23:50.782Z,98362.51
2022-08-22T16:26:32.260Z,98363.85
2022-08-22T16:29:17.860Z,98370.30
2022-08-22T16:31:46.584Z,98374.88
2022-08-22T16:34:23.662Z,98378.73
2022-08-22T16:36:54.723Z,98375.66
2022-08-22T16:39:23.098Z,98379.11
2022-08-22T16:41:56.447Z,98391.63
2022-08-22T16:44:30.710Z,98398.34
2022-08-22T16:47:07.346Z,98394.04
2022-08-22T16:49:50.640Z,98397.95
2022-08-22T16:52:39.397Z,98396.20
2022-08-22T16:55:31.114Z,98388.48
2022-08-22T16:58:06.948Z,98387.06
2022-08-22T17:00:50.484Z,98396.66
2022-08-22T17:03:29.690Z,98403.88
2022-08-22T17:06:06.353Z,98408.07
2022-08-22T17:08:44.536Z,98418.23
2022-08-22T17:11:31.572Z,98422.84
2022-08-22T17:14:10.526Z,98420.77
2022-08-22T17:16:56.659Z,98418.56
2022-08-22T17:19:58.157Z,98419.42
2022-08-22T17:22:44.097Z,98421.41
2022-08-22T17:25:20.856Z,98432.45
2022-08-22T17:28:15.987Z,98438.50
2022-08-22T17:31:12.588Z,98437.63
2022-08-22T17:33:41.682Z,98436.02
2022-08-22T17:36:27.195Z,98435.57
2022-08-22T17:39:35.292Z,98429.58
2022-08-22T17:42:35.506Z,98439.23
2022-08-22T17:45:13.908Z,98448.17
2022-08-22T17:48:00.717Z,98458.75
2022-08-22T17:50:41.503Z,98461.98
2022-08-22T17:53:25.428Z,98453.89
2022-08-22T17:56:05.504Z,98447.83
2022-08-22T17:59:08.161Z,98455.83
2022-08-22T18:01:43.810Z,98459.09
2022-08-22T18:04:23.049Z,98455.09
2022-08-22T18:06:58.666Z,98468.10
2022-08-22T18:09:35.302Z,98493.73
2022-08-22T18:12:21.284Z,98508.66
2022-08-22T18:14:57.212Z,98522.55
2022-08-22T18:17:35.763Z,98517.12
2022-08-22T18:20:15.644Z,98508.30
2022-08-22T18:22:52.887Z,98502.58
2022-08-22T18:25:21.552Z,98486.83
2022-08-22T18:28:01.500Z,98465.40
2022-08-22T18:30:53.175Z,98456.02
2022-08-22T18:33:38.649Z,98452.14
2022-08-22T18:36:11.015Z,98456.52
2022-08-22T18:38:55.360Z,98453.82
2022-08-22T18:41:33.679Z,98461.00
2022-08-22T18:44:18.273Z,98471.52
2022-08-22T18:46:51.664Z,98471.76
2022-08-22T18:49:23.706Z,98473.80
2022-08-22T18:52:09.658Z,98478.20
2022-08-22T18:55:01.468Z,98480.34
2022-08-22T18:58:01.095Z,98483.35
2022-08-22T19:01:07.339Z,98478.39
2022-08-22T19:04:05.533Z,98477.83
2022-08-22T19:06:48.372Z,98480.63
2022-08-22T19:09:59.605Z,98486.84
2022-08-22T19:12:45.297Z,98490.36
2022-08-22T19:15:45.242Z,98489.40
2022-08-22T19:18:32.692Z,98485.75
2022-08-22T19:21:40.716Z,98481.71
2022-08-22T19:24:20.284Z,98478.41
2022-08-22T19:27:09.964Z,98471.70
2022-08-22T19:29:37.788Z,98469.54
2022-08-22T19:32:13.118Z,98467.95
2022-08-22T19:34:46.895Z,98464.91
2022-08-22T19:37:33.017Z,98465.63
2022-08-22T19:40:12.079Z,98463.01
2022-08-22T19:42:46.872Z,98458.91
2022-08-22T19:45:29.031Z,98460.05
2022-08-22T19:48:09.416Z,98461.16
2022-08-22T19:50:40.539Z,98467.80
2022-08-22T19:53:50.699Z,98465.90
2022-08-22T19:56:33.135Z,98460.64
2022-08-22T19:59:24.632Z,98459.30
2022-08-22T20:01:56.141Z,98458.88
2022-08-22T20:04:35.540Z,98464.39
2022-08-22T20:07:35.723Z,98469.95
2022-08-22T20:10:23.738Z,98475.39
2022-08-22T20:13:07.988Z,98474.18
2022-08-22T20:16:07.809Z,98473.38
2022-08-22T20:19:05.938Z,98470.70
2022-08-22T20:21:56.058Z,98475.27
2022-08-22T20:24:49.983Z,98480.50
2022-08-22T20:27:26.814Z,98476.54
2022-08-22T20:30:29.898Z,98480.83
2022-08-22T20:33:07.402Z,98487.93
2022-08-22T20:35:39.367Z,98483.70
2022-08-22T20:38:14.398Z,98489.20
2022-08-22T20:40:56.596Z,98492.75
2022-08-22T20:43:37.031Z,98496.95
2022-08-22T20:46:27.033Z,98496.70
2022-08-22T20:48:57.630Z,98513.16
2022-08-22T20:51:31.599Z,98516.68
2022-08-22T20:54:20.828Z,98516.58
2022-08-22T20:56:54.806Z,98510.91
2022-08-22T20:59:31.389Z,98507.95
2022-08-22T21:02:35.682Z,98512.95
2022-08-22T21:05:24.037Z,98508.45
2022-08-22T21:08:15.788Z,98512.35
2022-08-22T21:11:04.244Z,98508.33
2022-08-22T21:13:38.487Z,98501.02
2022-08-22T21:16:19.959Z,98493.13
2022-08-22T21:18:52.175Z,98490.50
2022-08-22T21:21:27.852Z,98492.47
2022-08-22T21:24:00.950Z,98488.32
2022-08-22T21:26:59.203Z,98495.49
2022-08-22T21:29:32.910Z,98489.23
2022-08-22T21:32:20.259Z,98490.28
2022-08-22T21:34:51.091Z,98497.38
2022-08-22T21:37:46.562Z,98498.61
2022-08-22T21:40:20.537Z,98493.11
2022-08-22T21:43:01.460Z,98486.64
2022-08-22T21:45:39.016Z,98478.13
2022-08-22T21:48:42.446Z,98465.95
2022-08-22T21:51:39.353Z,98469.53
2022-08-22T21:54:34.811Z,98473.81
2022-08-22T21:57:09.128Z,98474.13
2022-08-22T21:59:51.815Z,98471.75
2022-08-22T22:02:36.744Z,98473.09
2022-08-22T22:05:11.666Z,98479.34
2022-08-22T22:07:42.743Z,98486.23
2022-08-22T22:10:14.178Z,98482.08
2022-08-22T22:12:45.396Z,98476.04
2022-08-22T22:15:19.119Z,98472.48
2022-08-22T22:17:48.689Z,98478.80
2022-08-22T22:20:19.079Z,98478.48
2022-08-22T22:22:49.171Z,98482.52
2022-08-22T22:25:40.059Z,98491.78
2022-08-22T22:28:21.542Z,98491.16
2022-08-22T22:30:53.378Z,98492.60
2022-08-22T22:33:28.678Z,98492.08
2022-08-22T22:36:07.138Z,98495.20
2022-08-22T22:38:38.068Z,98485.16
2022-08-22T22:41:08.712Z,98491.16
2022-08-22T22:43:38.758Z,98484.42
2022-08-22T22:46:10.175Z,98482.70
2022-08-22T22:48:37.951Z,98475.99
2022-08-22T22:51:12.320Z,98466.29
2022-08-22T22:53:43.072Z,98462.61
2022-08-22T22:56:22.319Z,98465.36
2022-08-22T22:58:58.925Z,98466.77
2022-08-22T23:01:31.879Z,98488.88
2022-08-22T23:04:03.255Z,98486.78
2022-08-22T23:06:36.313Z,98491.64
2022-08-22T23:09:05.961Z,98491.85
2022-08-22T23:11:35.787Z,98495.61
2022-08-22T23:14:03.661Z,98493.91
2022-08-22T23:16:37.285Z,98493.02
2022-08-22T23:19:10.706Z,98490.28
2022-08-22T23:21:40.585Z,98490.48
2022-08-22T23:24:12.840Z,98491.47
2022-08-22T23:26:42.591Z,98490.38
2022-08-22T23:29:12.940Z,98493.67
2022-08-22T23:31:59.113Z,98490.15
2022-08-22T23:34:34.900Z,98496.58
2022-08-22T23:37:07.286Z,98494.90
2022-08-22T23:39:38.509Z,98497.42
2022-08-22T23:42:08.701Z,98500.95
2022-08-22T23:44:40.358Z,98508.96
2022-08-22T23:47:11.346Z,98513.26
2022-08-22T23:49:42.164Z,98513.64
2022-08-22T23:52:13.248Z,98514.05
2022-08-22T23:54:43.215Z,98509.28
2022-08-22T23:57:12.867Z,98509.36
2022-08-22T23:59:47.986Z,98513.46
